Time;durP1;ratioP1;P1;durP2;ratioP2;P2;SDS_P1;SDS_P2;PMS_P1;PMS_P2;Temp;Humidity;BMP_temperature;BMP_pressure;BME280_temperature;BME280_humidity;BME280_pressure;Samples;Min_cycle;Max_cycle;Signal;HPM_P1;HPM_P2
2023/09/04 00:01:06;;;;;;;23.13;22.13;;;;;;;-141.02;100.00;74323.72;5114249;27;20694;-59
2023/09/04 00:03:33;;;;;;;22.40;21.50;;;;;;;-141.02;100.00;79536.03;5114685;28;20201;-65
2023/09/04 00:06:02;;;;;;;21.95;21.05;;;;;;;-141.02;100.00;84756.25;5114274;28;20197;-60
2023/09/04 00:08:29;;;;;;;22.13;21.23;;;;;;;-141.02;100.00;87991.81;5114231;28;20201;-61
2023/09/04 00:10:56;;;;;;;23.13;22.13;;;;;;;-141.02;100.00;90233.56;5114169;27;20200;-62
2023/09/04 00:13:23;;;;;;;21.70;20.80;;;;;;;-141.02;100.00;92227.47;5114400;28;20362;-65
2023/09/04 00:15:55;;;;;;;21.70;20.80;;;;;;;-141.02;100.00;92975.47;5114044;28;20193;-61
2023/09/04 00:18:22;;;;;;;21.60;20.70;;;;;;;-141.02;100.00;94222.50;5114384;28;20189;-59
2023/09/04 00:20:49;;;;;;;23.98;22.98;;;;;;;-141.02;100.00;95719.53;5113882;28;20221;-60
2023/09/04 00:23:17;;;;;;;24.45;23.35;;;;;;;-141.02;100.00;96967.56;5113926;28;20242;-59
2023/09/04 00:25:45;;;;;;;24.20;23.10;;;;;;;-141.02;100.00;97716.59;5113850;28;20193;-60
2023/09/04 00:28:13;;;;;;;24.00;23.00;;;;;;;-141.02;100.00;98715.56;5113694;28;20229;-58
2023/09/04 00:30:40;;;;;;;23.10;22.10;;;;;;;-141.02;100.00;99464.97;5113391;28;20246;-63
2023/09/04 00:33:07;;;;;;;24.88;23.77;;;;;;;-141.02;100.00;99964.66;5113739;28;20224;-58
2023/09/04 00:35:34;;;;;;;25.05;23.95;;;;;;;-141.02;100.00;100464.44;5113906;28;20201;-59
2023/09/04 00:38:01;;;;;;;24.85;23.75;;;;;;;-141.02;100.00;100964.25;5113677;28;20197;-66
2023/09/04 00:40:30;;;;;;;26.20;25.00;;;;;;;-141.02;100.00;101214.22;5113511;28;20225;-66
2023/09/04 00:42:57;;;;;;;24.60;23.50;;;;;;;-141.02;100.00;101964.16;5113462;28;20197;-58
2023/09/04 00:45:24;;;;;;;24.05;23.05;;;;;;;-141.02;100.00;102714.25;5113487;28;20254;-61
2023/09/04 00:47:51;;;;;;;23.00;22.10;;;;;;;-141.02;100.00;103464.53;5113634;27;20193;-58
2023/09/04 00:50:22;;;;;;;22.60;21.70;;;;;;;-141.02;100.00;104214.97;5113683;28;20250;-66
2023/09/04 00:52:50;;;;;;;22.58;21.67;;;;;;;-141.02;100.00;104715.34;5113677;27;20185;-59
2023/09/04 00:55:17;;;;;;;19.48;18.77;;;;;;;-141.02;100.00;105215.78;5113589;28;20245;-66
2023/09/04 00:57:46;;;;;;;22.70;21.80;;;;;;;-141.02;100.00;105466.03;5113269;28;20197;-63
2023/09/04 01:00:14;;;;;;;25.00;24.00;;;;;;;-141.02;100.00;105716.31;5113092;28;20311;-65
2023/09/04 01:02:42;;;;;;;25.67;24.67;;;;;;;-141.02;100.00;106216.91;5113989;28;20193;-58
2023/09/04 01:05:10;;;;;;;26.33;25.33;;;;;;;-141.02;100.00;106467.22;5113087;28;20204;-62
2023/09/04 01:07:40;;;;;;;28.70;27.50;;;;;;;-141.02;100.00;106717.56;5113375;28;20276;-64
2023/09/04 01:10:09;;;;;;;29.77;28.58;;;;;;;-141.02;100.00;106967.91;5112999;28;20276;-58
2023/09/04 01:12:43;;;;;;;28.63;27.52;;;;;;;-141.02;100.00;106967.91;5113302;28;20251;-58
2023/09/04 01:15:14;;;;;;;30.92;29.63;;;;;;;-141.02;100.00;107218.31;5113250;28;20181;-58
2023/09/04 01:17:43;;;;;;;30.45;29.25;;;;;;;-141.02;100.00;107218.31;5113600;28;20289;-58
2023/09/04 01:20:26;;;;;;;29.70;28.50;;;;;;;-141.02;100.00;107468.69;5113079;28;20312;-63
2023/09/04 01:22:53;;;;;;;29.98;28.77;;;;;;;-141.02;100.00;107719.09;5112910;28;20268;-66
2023/09/04 01:25:21;;;;;;;29.65;28.45;;;;;;;-141.02;100.00;107719.09;5112778;27;20723;-66
2023/09/04 01:27:56;;;;;;;31.88;30.58;;;;;;;-141.02;100.00;107719.09;5112719;28;20258;-66
2023/09/04 01:30:30;;;;;;;30.35;29.15;;;;;;;-141.02;100.00;107969.53;5113076;28;20271;-66
2023/09/04 01:33:03;;;;;;;34.45;33.05;;;;;;;-141.02;100.00;107969.53;5113027;28;20193;-60
2023/09/04 01:35:36;;;;;;;36.17;34.67;;;;;;;-141.02;100.00;107969.53;5113207;28;20181;-57
2023/09/04 01:38:46;;;;;;;35.38;33.97;;;;;;;-141.02;100.00;107969.53;5111837;28;20193;-58
2023/09/04 01:44:43;;;;;;;28.67;27.58;;;;;;;-141.02;100.00;107969.53;5112675;28;20604;-67
2023/09/04 01:47:23;;;;;;;31.60;30.30;;;;;;;-141.02;100.00;107971.50;5112526;28;20185;-64
2023/09/04 01:50:05;;;;;;;30.45;29.25;;;;;;;-141.02;100.00;107971.50;5112673;28;20293;-58
2023/09/04 01:52:42;;;;;;;31.80;30.50;;;;;;;-141.02;100.00;107971.50;5112619;28;20199;-57
2023/09/04 01:55:55;;;;;;;30.60;29.40;;;;;;;-141.02;100.00;107971.50;5112422;28;20227;-57
2023/09/04 01:59:15;;;;;;;29.15;27.95;;;;;;;-141.02;100.00;107971.50;5112348;28;20201;-57
2023/09/04 02:02:32;;;;;;;28.40;27.30;;;;;;;-141.02;100.00;107971.50;5112214;28;20231;-66
2023/09/04 02:08:22;;;;;;;22.27;21.48;;;;;;;-141.02;100.00;107971.50;5112391;28;20227;-57
2023/09/04 02:11:11;;;;;;;22.48;21.67;;;;;;;-141.02;100.00;107971.50;5112289;28;20230;-56
2023/09/04 02:13:45;;;;;;;24.45;23.55;;;;;;;-141.02;100.00;107971.50;5112244;28;20272;-66
2023/09/04 02:16:19;;;;;;;25.90;24.90;;;;;;;-141.02;100.00;107971.50;5112226;28;20185;-59
2023/09/04 02:19:02;;;;;;;26.85;25.85;;;;;;;-141.02;100.00;107971.50;5112251;28;20273;-57
2023/09/04 02:21:36;;;;;;;26.52;25.52;;;;;;;-141.02;100.00;107971.50;5112366;28;20309;-66
2023/09/04 02:24:47;;;;;;;25.63;24.63;;;;;;;-141.02;100.00;107971.50;5112475;28;20192;-66
2023/09/04 02:27:22;;;;;;;22.35;21.55;;;;;;;-141.02;100.00;107971.50;5103122;28;20647;-57
2023/09/04 02:29:49;;;;;;;22.83;21.92;;;;;;;-141.02;100.00;107971.50;5112156;28;20189;-66
2023/09/04 02:32:25;;;;;;;19.88;19.17;;;;;;;-141.02;100.00;107971.50;5112039;28;20689;-61
2023/09/04 02:34:58;;;;;;;19.85;19.15;;;;;;;-141.02;100.00;107971.50;5112058;28;20185;-65
2023/09/04 02:37:31;;;;;;;20.48;19.75;;;;;;;-141.02;100.00;107971.50;5112074;28;20239;-66
2023/09/04 02:47:24;;;;;;;18.40;17.80;;;;;;;-141.02;100.00;107971.50;5112044;28;20176;-63
2023/09/04 02:53:18;;;;;;;18.20;17.60;;;;;;;-141.02;100.00;107971.50;5114747;28;20192;-55
2023/09/04 02:55:55;;;;;;;16.85;16.35;;;;;;;-141.02;100.00;107971.50;5115651;27;20195;-66
2023/09/04 02:58:29;;;;;;;15.38;14.88;;;;;;;-141.02;100.00;107971.50;5115624;28;20268;-56
2023/09/04 03:01:24;;;;;;;16.88;16.38;;;;;;;-141.02;100.00;107971.50;5115452;28;20217;-56
2023/09/04 03:03:51;;;;;;;16.80;16.25;;;;;;;-141.02;100.00;107971.50;5115524;28;20247;-66
2023/09/04 03:06:28;;;;;;;17.83;17.23;;;;;;;-141.02;100.00;107971.50;5115423;28;20736;-55
2023/09/04 03:08:59;;;;;;;15.45;14.95;;;;;;;-141.02;100.00;107971.50;5116065;28;20193;-56
2023/09/04 03:15:15;;;;;;;15.00;14.52;;;;;;;-141.02;100.00;107971.50;5115414;28;20218;-55
2023/09/04 03:21:05;;;;;;;15.63;15.13;;;;;;;-141.02;100.00;107971.50;5115466;28;20250;-66
2023/09/04 03:23:32;;;;;;;12.25;11.85;;;;;;;-141.02;100.00;107971.50;5115389;28;20189;-66
2023/09/04 03:26:01;;;;;;;13.90;13.50;;;;;;;-141.02;100.00;107971.50;5115080;28;20197;-65
2023/09/04 03:29:04;;;;;;;15.48;14.98;;;;;;;-141.02;100.00;107971.50;5114810;28;20312;-66
2023/09/04 03:31:31;;;;;;;15.68;15.18;;;;;;;-141.02;100.00;107971.50;5114925;28;20207;-66
2023/09/04 03:34:00;;;;;;;13.90;13.50;;;;;;;-141.02;100.00;107971.50;5115263;27;20254;-57
2023/09/04 03:36:27;;;;;;;15.75;15.25;;;;;;;-141.02;100.00;107971.50;5115135;28;20198;-66
2023/09/04 03:38:54;;;;;;;14.57;14.18;;;;;;;-141.02;100.00;107971.50;5115107;28;20279;-66
2023/09/04 03:41:22;;;;;;;15.65;15.15;;;;;;;-141.02;100.00;107969.53;5114960;28;20267;-67
2023/09/04 03:43:49;;;;;;;14.60;14.20;;;;;;;-141.02;100.00;107969.53;5115444;28;20609;-55
2023/09/04 03:46:16;;;;;;;14.60;14.20;;;;;;;-141.02;100.00;107969.53;5114993;28;20229;-56
2023/09/04 03:48:43;;;;;;;14.60;14.20;;;;;;;-141.02;100.00;107969.53;5114896;28;20647;-55
2023/09/04 03:51:10;;;;;;;13.70;13.30;;;;;;;-141.02;100.00;107969.53;5114908;28;20194;-67
2023/09/04 03:53:37;;;;;;;13.77;13.38;;;;;;;-141.02;100.00;107969.53;5115054;28;20261;-55
2023/09/04 03:56:05;;;;;;;14.10;13.70;;;;;;;-141.02;100.00;107969.53;5114448;28;20646;-55
2023/09/04 03:58:33;;;;;;;13.27;12.88;;;;;;;-141.02;100.00;107969.53;5114481;28;20739;-64
2023/09/04 04:01:00;;;;;;;12.70;12.30;;;;;;;-141.02;100.00;107969.53;5114630;27;20264;-55
2023/09/04 04:03:27;;;;;;;11.80;11.50;;;;;;;-141.02;100.00;107969.53;5113410;28;20193;-55
2023/09/04 04:05:54;;;;;;;12.40;12.10;;;;;;;-141.02;100.00;107969.53;5114500;28;20244;-63
2023/09/04 04:08:21;;;;;;;11.20;10.90;;;;;;;-141.02;100.00;107969.53;5114255;28;20193;-55
2023/09/04 04:10:48;;;;;;;11.57;11.27;;;;;;;-141.02;100.00;107969.53;5114247;27;20235;-55
2023/09/04 04:13:15;;;;;;;10.90;10.60;;;;;;;-141.02;100.00;107971.50;5114119;28;20614;-54
2023/09/04 04:15:45;;;;;;;10.50;10.20;;;;;;;-141.02;100.00;107971.50;5114456;28;20664;-66
2023/09/04 04:18:12;;;;;;;10.70;10.40;;;;;;;-141.02;100.00;107971.50;5114226;28;20201;-66
2023/09/04 04:20:39;;;;;;;10.20;9.90;;;;;;;-141.02;100.00;107971.50;5114213;28;20230;-66
2023/09/04 04:23:06;;;;;;;9.40;9.20;;;;;;;-141.02;100.00;107971.50;5114247;28;20280;-66
2023/09/04 04:25:33;;;;;;;8.70;8.50;;;;;;;-141.02;100.00;107971.50;5113917;28;20354;-55
2023/09/04 04:28:00;;;;;;;8.57;8.38;;;;;;;-141.02;100.00;107971.50;5113920;28;20225;-67
2023/09/04 04:30:27;;;;;;;8.20;8.00;;;;;;;-141.02;100.00;107971.50;5114091;28;20201;-55
2023/09/04 04:32:55;;;;;;;7.97;7.78;;;;;;;-141.02;100.00;107971.50;5113735;28;20232;-65
2023/09/04 04:35:22;;;;;;;7.80;7.60;;;;;;;-141.02;100.00;107971.50;5114277;28;20280;-55
2023/09/04 04:37:49;;;;;;;7.30;7.10;;;;;;;-141.02;100.00;107971.50;5113628;28;20232;-55
2023/09/04 04:40:21;;;;;;;7.38;7.18;;;;;;;-141.02;100.00;107969.53;5113610;28;20235;-54
2023/09/04 04:42:47;;;;;;;6.82;6.63;;;;;;;-141.02;100.00;107969.53;5113486;28;20219;-56
2023/09/04 04:45:15;;;;;;;8.23;8.02;;;;;;;-141.02;100.00;107719.09;5113771;28;20236;-66
2023/09/04 04:47:42;;;;;;;7.15;6.95;;;;;;;-141.02;100.00;107719.09;5113734;28;20224;-55
2023/09/04 04:50:11;;;;;;;7.25;7.05;;;;;;;-141.02;100.00;107719.09;5113896;28;20276;-55
2023/09/04 04:52:38;;;;;;;7.30;7.10;;;;;;;-141.02;100.00;107969.53;5113397;28;20201;-65
2023/09/04 04:55:06;;;;;;;7.70;7.50;;;;;;;-141.02;100.00;107969.53;5113269;28;20283;-61
2023/09/04 04:57:34;;;;;;;7.03;6.82;;;;;;;-141.02;100.00;107969.53;5113591;28;20233;-66
2023/09/04 05:00:01;;;;;;;7.30;7.10;;;;;;;-141.02;100.00;107969.53;5113449;27;20193;-66
2023/09/04 05:02:28;;;;;;;7.20;7.00;;;;;;;-141.02;100.00;107969.53;5113107;28;20227;-55
2023/09/04 05:04:55;;;;;;;6.90;6.70;;;;;;;-141.02;100.00;107969.53;5113243;28;20280;-62
2023/09/04 05:07:23;;;;;;;7.05;6.85;;;;;;;-141.02;100.00;107969.53;5113463;28;20271;-66
2023/09/04 05:09:53;;;;;;;7.00;6.80;;;;;;;-141.02;100.00;107969.53;5113166;28;20203;-54
2023/09/04 05:12:21;;;;;;;7.30;7.10;;;;;;;-141.02;100.00;107719.09;5112981;28;20189;-55
2023/09/04 05:14:48;;;;;;;7.38;7.18;;;;;;;-141.02;100.00;107719.09;5113079;28;20227;-62
2023/09/04 05:17:15;;;;;;;6.75;6.55;;;;;;;-141.02;100.00;107719.09;5113247;28;20272;-66
2023/09/04 05:19:42;;;;;;;6.20;6.10;;;;;;;-141.02;100.00;107719.09;5112964;28;20284;-67
2023/09/04 05:22:09;;;;;;;6.20;6.10;;;;;;;-141.02;100.00;107719.09;5113092;28;20316;-54
2023/09/04 05:24:37;;;;;;;5.70;5.60;;;;;;;-141.02;100.00;107468.69;5113331;28;20197;-54
2023/09/04 05:27:05;;;;;;;6.72;6.53;;;;;;;-141.02;100.00;106967.91;5112763;28;20280;-54
2023/09/04 05:29:32;;;;;;;6.90;6.70;;;;;;;-141.02;100.00;106467.22;5112561;28;20699;-67
2023/09/04 05:31:59;;;;;;;7.90;7.70;;;;;;;-141.02;100.00;105716.31;5113089;28;20280;-55
2023/09/04 05:34:26;;;;;;;8.80;8.60;;;;;;;-141.02;100.00;105466.03;5112663;28;20280;-54
2023/09/04 05:36:53;;;;;;;9.00;8.80;;;;;;;-141.02;100.00;104965.56;5112709;28;20722;-54
2023/09/04 05:39:20;;;;;;;9.55;9.25;;;;;;;-141.02;100.00;104214.97;5112941;28;20200;-54
2023/09/04 05:41:49;;;;;;;9.80;9.50;;;;;;;-141.02;100.00;103714.66;5112738;28;20737;-58
2023/09/04 05:44:16;;;;;;;9.73;9.43;;;;;;;-141.02;100.00;102714.25;5112836;28;20199;-67
2023/09/04 05:46:42;;;;;;;10.98;10.68;;;;;;;-141.02;100.00;101964.16;5112489;28;20230;-68
2023/09/04 05:49:09;;;;;;;11.98;11.57;;;;;;;-141.02;100.00;100964.25;5112562;28;20662;-66
2023/09/04 05:51:36;;;;;;;11.43;11.13;;;;;;;-141.02;100.00;99964.66;5112846;28;20232;-55
2023/09/04 05:54:03;;;;;;;12.30;11.90;;;;;;;-141.02;100.00;99714.81;5113003;28;20276;-54
2023/09/04 05:56:30;;;;;;;11.75;11.43;;;;;;;-141.02;100.00;99215.16;5112424;28;20671;-67
2023/09/04 05:59:00;;;;;;;12.10;11.70;;;;;;;-141.02;100.00;98965.34;5112735;28;20201;-54
2023/09/04 06:01:27;;;;;;;12.65;12.25;;;;;;;-141.02;100.00;97217.22;5112383;28;20273;-67
2023/09/04 06:03:54;;;;;;;13.50;13.10;;;;;;;-141.02;100.00;95969.13;5112699;28;20242;-54
2023/09/04 06:06:21;;;;;;;13.07;12.68;;;;;;;-141.02;100.00;95969.13;5112599;28;20682;-54
2023/09/04 06:08:48;;;;;;;13.27;12.88;;;;;;;-141.02;100.00;96468.31;5112638;28;20284;-56
2023/09/04 06:11:15;;;;;;;13.57;13.18;;;;;;;-141.02;100.00;95470.00;5112611;28;20197;-55
2023/09/04 06:13:42;;;;;;;14.05;13.65;;;;;;;-141.02;100.00;94222.50;5112364;28;20720;-68
2023/09/04 06:16:11;;;;;;;14.00;13.60;;;;;;;-141.02;100.00;94471.97;5112525;28;20193;-57
2023/09/04 06:18:37;;;;;;;13.40;13.00;;;;;;;-141.02;100.00;94970.94;5112511;28;20197;-62
2023/09/04 06:21:04;;;;;;;13.75;13.35;;;;;;;-141.02;100.00;93973.06;5112193;28;20239;-68
2023/09/04 06:23:32;;;;;;;13.80;13.40;;;;;;;-141.02;100.00;94970.94;5112408;28;20284;-69
2023/09/04 06:26:02;;;;;;;13.77;13.38;;;;;;;-141.02;100.00;94222.50;5112516;28;20220;-55
2023/09/04 06:28:29;;;;;;;14.27;13.77;;;;;;;-141.02;100.00;93474.22;5115395;28;20320;-68
2023/09/04 06:30:56;;;;;;;14.85;14.35;;;;;;;-141.02;100.00;92726.13;5116493;28;20276;-70
2023/09/04 06:33:25;;;;;;;14.20;13.70;;;;;;;-141.02;100.00;92726.13;5116371;28;20201;-56
2023/09/04 06:35:52;;;;;;;14.15;13.65;;;;;;;-141.02;100.00;91978.16;5116415;28;20216;-56
2023/09/04 06:38:19;;;;;;;14.20;13.70;;;;;;;-141.02;100.00;91978.16;5116586;28;20193;-56
2023/09/04 06:40:46;;;;;;;14.10;13.60;;;;;;;-141.02;100.00;91728.88;5116300;27;20198;-56
2023/09/04 06:43:13;;;;;;;25.05;24.05;;;;;;;-141.02;100.00;91728.88;5116178;28;20319;-56
2023/09/04 06:45:40;;;;;;;30.10;28.90;;;;;;;-141.02;100.00;91479.63;5115845;28;20284;-56
2023/09/04 06:48:07;;;;;;;24.83;23.83;;;;;;;-141.02;100.00;91230.38;5116222;28;20199;-70
2023/09/04 06:50:35;;;;;;;23.25;22.35;;;;;;;-141.02;100.00;90233.56;5115832;28;20199;-70
2023/09/04 06:53:03;;;;;;;23.70;22.80;;;;;;;-141.02;100.00;89735.28;5115734;28;20679;-58
2023/09/04 06:55:30;;;;;;;20.33;19.63;;;;;;;-141.02;100.00;89237.03;5116019;28;20189;-56
2023/09/04 06:57:57;;;;;;;24.92;23.92;;;;;;;-141.02;100.00;88987.97;5115635;28;20224;-71
2023/09/04 07:00:25;;;;;;;25.27;24.27;;;;;;;-141.02;100.00;87991.81;5115662;28;20283;-56
2023/09/04 07:02:52;;;;;;;24.90;24.00;;;;;;;-141.02;100.00;88489.84;5115529;28;20260;-58
2023/09/04 07:05:19;;;;;;;24.98;24.08;;;;;;;-141.02;100.00;86498.09;5115888;28;20189;-57
2023/09/04 07:07:48;;;;;;;24.45;23.55;;;;;;;-141.02;100.00;86249.22;5115864;28;20197;-70
2023/09/04 07:10:15;;;;;;;24.77;23.88;;;;;;;-141.02;100.00;85502.66;5115703;28;20690;-57
2023/09/04 07:12:42;;;;;;;23.40;22.55;;;;;;;-141.02;100.00;84756.25;5115738;28;20197;-56
2023/09/04 07:15:09;;;;;;;22.95;22.15;;;;;;;-141.02;100.00;83761.31;5115619;28;20228;-66
2023/09/04 07:17:36;;;;;;;17.02;16.52;;;;;;;-141.02;100.00;85253.84;5115290;28;20240;-70
2023/09/04 07:20:04;;;;;;;22.05;21.25;;;;;;;-141.02;100.00;84010.03;5115627;28;20648;-69
2023/09/04 07:22:31;;;;;;;23.13;22.30;;;;;;;-141.02;100.00;83015.31;5115093;28;20221;-69
2023/09/04 07:24:59;;;;;;;24.52;23.63;;;;;;;-141.02;100.00;82518.06;5115784;28;20581;-69
2023/09/04 07:27:27;;;;;;;12.95;12.55;;;;;;;-141.02;100.00;81772.31;5115124;28;20272;-57
2023/09/04 07:29:54;;;;;;;13.30;12.90;;;;;;;-141.02;100.00;80281.31;5115168;28;20185;-57
2023/09/04 07:32:21;;;;;;;13.10;12.70;;;;;;;-141.02;100.00;79784.44;5116145;28;20193;-57
2023/09/04 07:34:48;;;;;;;13.20;12.80;;;;;;;-141.02;100.00;80281.31;5114976;28;20773;-71
2023/09/04 07:37:15;;;;;;;13.25;12.85;;;;;;;-141.02;100.00;79536.03;5115173;28;20271;-70
2023/09/04 07:39:42;;;;;;;13.15;12.75;;;;;;;-141.02;100.00;78046.00;5115080;28;20193;-56
2023/09/04 07:42:12;;;;;;;13.45;13.05;;;;;;;-141.02;100.00;78294.28;5114745;28;20324;-66
2023/09/04 07:44:39;;;;;;;14.10;13.70;;;;;;;-141.02;100.00;77549.47;5114750;28;20193;-67
2023/09/04 07:47:06;;;;;;;14.13;13.65;;;;;;;-141.02;100.00;75315.94;5115063;28;20232;-57
2023/09/04 07:49:33;;;;;;;13.38;12.98;;;;;;;-141.02;100.00;75067.88;5115001;28;20226;-72
2023/09/04 07:52:00;;;;;;;13.05;12.65;;;;;;;-141.02;100.00;74819.81;5114621;28;20224;-57
2023/09/04 07:54:27;;;;;;;13.60;13.20;;;;;;;-141.02;100.00;74571.75;5114584;28;20296;-57
2023/09/04 07:56:54;;;;;;;14.10;13.60;;;;;;;-141.02;100.00;72588.06;5115567;28;20302;-56
2023/09/04 07:59:22;;;;;;;14.57;14.07;;;;;;;-141.02;100.00;70357.75;5114845;28;20281;-57
2023/09/04 08:01:49;;;;;;;13.50;13.10;;;;;;;-141.02;100.00;72092.31;5114670;28;20197;-58
2023/09/04 08:04:16;;;;;;;13.70;13.20;;;;;;;-141.02;100.00;70110.03;5114467;28;20687;-72
2023/09/04 08:06:43;;;;;;;13.90;13.40;;;;;;;-141.02;100.00;69862.34;5114362;28;20189;-57
2023/09/04 08:09:10;;;;;;;15.85;15.25;;;;;;;-141.02;100.00;67138.78;5114237;28;20239;-56
2023/09/04 08:11:37;;;;;;;14.63;14.13;;;;;;;-141.02;100.00;66891.31;5114287;28;20667;-57
2023/09/04 08:14:04;;;;;;;15.60;15.00;;;;;;;-141.02;100.00;64912.06;5114161;28;20236;-62
2023/09/04 08:16:33;;;;;;;15.10;14.50;;;;;;;-141.02;100.00;64417.41;5114165;28;20250;-57
2023/09/04 08:19:00;;;;;;;15.70;15.10;;;;;;;-141.02;100.00;63181.16;5114072;28;20243;-57
2023/09/04 08:21:27;;;;;;;15.18;14.57;;;;;;;-141.02;100.00;62686.75;5114013;28;20239;-71
2023/09/04 08:23:54;;;;;;;14.88;14.38;;;;;;;-141.02;100.00;64417.41;5113928;28;20264;-72
2023/09/04 08:26:20;;;;;;;14.30;13.80;;;;;;;-141.02;100.00;64912.06;5113938;28;20250;-56
2023/09/04 08:28:47;;;;;;;15.43;14.82;;;;;;;-141.02;100.00;60957.00;5113954;28;20374;-72
2023/09/04 08:31:14;;;;;;;14.80;14.30;;;;;;;-141.02;100.00;61945.31;5113877;28;20283;-72
2023/09/04 08:33:43;;;;;;;15.30;14.70;;;;;;;-141.02;100.00;62933.94;5114078;27;20197;-57
2023/09/04 08:36:10;;;;;;;15.90;15.30;;;;;;;-141.02;100.00;60462.94;5114048;28;20228;-74
2023/09/04 08:38:37;;;;;;;15.30;14.70;;;;;;;-141.02;100.00;61945.31;5113932;28;20228;-73
2023/09/04 08:41:08;;;;;;;16.30;15.60;;;;;;;-141.02;100.00;60957.00;5113648;28;20640;-57
2023/09/04 08:43:37;;;;;;;16.35;15.65;;;;;;;-141.02;100.00;58981.19;5113547;28;20256;-56
2023/09/04 08:46:07;;;;;;;16.15;15.45;;;;;;;-141.02;100.00;58981.19;5113878;28;20190;-57
2023/09/04 08:48:39;;;;;;;16.33;15.63;;;;;;;-141.02;100.00;58487.41;5114160;28;20274;-57
2023/09/04 08:51:07;;;;;;;15.57;14.88;;;;;;;-141.02;100.00;58981.19;5113304;28;20204;-57
2023/09/04 08:53:36;;;;;;;16.73;15.93;;;;;;;-141.02;100.00;57253.28;5113769;28;20257;-57
2023/09/04 08:56:04;;;;;;;16.70;16.00;;;;;;;-141.02;100.00;56191.16;5113361;28;20193;-57
2023/09/04 08:58:31;;;;;;;16.83;16.02;;;;;;;-141.02;100.00;53842.53;5113602;28;20279;-57
2023/09/04 09:00:58;;;;;;;16.98;16.17;;;;;;;-141.02;100.00;56127.56;5113210;28;20286;-57
2023/09/04 09:03:25;;;;;;;15.77;15.07;;;;;;;-141.02;100.00;57500.06;5113432;28;20260;-57
2023/09/04 09:05:58;;;;;;;16.30;15.60;;;;;;;-141.02;100.00;56065.88;5113487;28;20228;-57
2023/09/04 09:08:27;;;;;;;15.98;15.27;;;;;;;-141.02;100.00;54308.66;5113806;28;20196;-73
2023/09/04 09:10:54;;;;;;;15.77;15.07;;;;;;;-141.02;100.00;55811.50;5113094;28;20667;-73
2023/09/04 09:13:21;;;;;;;16.60;15.90;;;;;;;-141.02;100.00;55310.47;5113267;28;20221;-57
2023/09/04 09:15:48;;;;;;;16.50;15.70;;;;;;;-141.02;100.00;53393.78;5113374;28;20291;-73
2023/09/04 09:18:37;;;;;;;16.40;15.70;;;;;;;-141.02;100.00;52898.91;5113285;28;20195;-57
2023/09/04 09:21:21;;;;;;;16.25;15.55;;;;;;;-141.02;100.00;53653.78;5113267;28;20192;-69
2023/09/04 09:24:06;;;;;;;16.15;15.45;;;;;;;-141.02;100.00;53811.72;5112916;28;20209;-57
2023/09/04 09:26:33;;;;;;;16.65;15.95;;;;;;;-141.02;100.00;53854.06;5113215;28;20272;-57
2023/09/04 09:29:03;;;;;;;16.23;15.52;;;;;;;-141.02;100.00;53091.47;5112678;28;20235;-57
2023/09/04 09:31:30;;;;;;;16.40;15.70;;;;;;;-141.02;100.00;51813.09;5113022;28;20197;-59
2023/09/04 09:33:58;;;;;;;16.80;16.10;;;;;;;-141.02;100.00;53168.47;5112985;28;20279;-73
2023/09/04 09:36:25;;;;;;;17.00;16.20;;;;;;;-141.02;100.00;51466.66;5113002;28;20572;-57
2023/09/04 09:38:55;;;;;;;15.73;15.13;;;;;;;-141.02;100.00;53195.44;5112662;28;20284;-57
2023/09/04 09:41:23;;;;;;;16.83;16.02;;;;;;;-141.02;100.00;52259.72;5113009;28;20221;-57
2023/09/04 09:43:50;;;;;;;42.90;40.60;;;;;;;-141.02;100.00;53033.69;5112755;28;20225;-66
2023/09/04 09:46:17;;;;;;;51.28;48.65;;;;;;;-141.02;100.00;50213.94;5112918;28;20192;-57
2023/09/04 09:48:45;;;;;;;42.60;40.40;;;;;;;-141.02;100.00;50502.53;5112554;28;20284;-57
2023/09/04 09:51:13;;;;;;;16.10;15.40;;;;;;;-141.02;100.00;51984.44;5112813;28;20221;-58
2023/09/04 09:53:47;;;;;;;16.52;15.82;;;;;;;-141.02;100.00;51108.69;5112670;28;20197;-57
2023/09/04 09:56:16;;;;;;;16.17;15.48;;;;;;;-141.02;100.00;50666.09;5112742;28;20207;-74
2023/09/04 09:58:45;;;;;;;16.13;15.43;;;;;;;-141.02;100.00;50673.78;5112453;28;20254;-73
2023/09/04 10:01:13;;;;;;;16.85;16.15;;;;;;;-141.02;100.00;49996.53;5112424;28;20246;-73
2023/09/04 10:03:40;;;;;;;17.35;16.65;;;;;;;-141.02;100.00;49030.91;5115985;28;20315;-57
2023/09/04 10:06:09;;;;;;;16.50;15.80;;;;;;;-141.02;100.00;49761.81;5116852;28;20619;-57
2023/09/04 10:08:40;;;;;;;17.20;16.50;;;;;;;-141.02;100.00;49309.78;5116600;28;20197;-75
2023/09/04 10:11:11;;;;;;;15.88;15.18;;;;;;;-141.02;100.00;50793.09;5116929;28;20193;-56
2023/09/04 10:13:50;;;;;;;15.45;14.85;;;;;;;-141.02;100.00;52146.13;5116974;28;20216;-57
2023/09/04 10:16:28;;;;;;;16.00;15.40;;;;;;;-141.02;100.00;49869.56;5116828;28;20716;-57
2023/09/04 10:18:59;;;;;;;16.55;15.85;;;;;;;-141.02;100.00;49223.22;5116848;28;20192;-57
2023/09/04 10:21:28;;;;;;;16.55;15.85;;;;;;;-141.02;100.00;49554.06;5116375;28;20685;-73
2023/09/04 10:24:01;;;;;;;16.33;15.63;;;;;;;-141.02;100.00;49665.63;5116305;28;20228;-57
2023/09/04 10:26:35;;;;;;;15.82;15.23;;;;;;;-141.02;100.00;50150.44;5116839;28;20185;-57
2023/09/04 10:29:06;;;;;;;15.60;15.00;;;;;;;-141.02;100.00;49546.38;5116222;28;20228;-58
2023/09/04 10:31:36;;;;;;;15.52;14.93;;;;;;;-141.02;100.00;50427.50;5116204;28;20181;-72
2023/09/04 10:34:03;;;;;;;15.10;14.50;;;;;;;-141.02;100.00;51054.78;5116449;28;20567;-56
2023/09/04 10:36:31;;;;;;;13.90;13.40;;;;;;;-141.02;100.00;53351.44;5116381;28;20284;-59
2023/09/04 10:39:00;;;;;;;13.80;13.30;;;;;;;-141.02;100.00;51293.44;5116395;28;20189;-57
2023/09/04 10:41:29;;;;;;;14.88;14.38;;;;;;;-141.02;100.00;51068.28;5116313;28;20224;-58
2023/09/04 10:43:56;;;;;;;14.13;13.63;;;;;;;-141.02;100.00;52509.97;5116213;28;20232;-73
2023/09/04 10:46:24;;;;;;;14.43;13.93;;;;;;;-141.02;100.00;53380.31;5116234;27;20190;-57
2023/09/04 10:48:53;;;;;;;14.55;14.05;;;;;;;-141.02;100.00;51405.06;5116390;28;20200;-57
2023/09/04 10:51:30;;;;;;;13.73;13.32;;;;;;;-141.02;100.00;53026.00;5116193;28;20292;-68
2023/09/04 10:53:59;;;;;;;15.10;14.60;;;;;;;-141.02;100.00;54272.06;5116032;28;20189;-70
2023/09/04 10:56:26;;;;;;;16.30;15.70;;;;;;;-141.02;100.00;53507.41;5116038;28;20193;-69
2023/09/04 10:59:04;;;;;;;18.92;18.13;;;;;;;-141.02;100.00;55152.47;5115957;28;20282;-58
2023/09/04 11:01:40;;;;;;;18.90;18.10;;;;;;;-141.02;100.00;57006.53;5115962;28;20189;-58
2023/09/04 11:04:08;;;;;;;19.40;18.50;;;;;;;-141.02;100.00;61204.03;5115471;28;20219;-60
2023/09/04 11:06:38;;;;;;;19.92;19.13;;;;;;;-141.02;100.00;61698.22;5115894;28;20308;-60
2023/09/04 11:09:06;;;;;;;24.63;23.52;;;;;;;-141.02;100.00;68624.09;5116261;28;20231;-63
2023/09/04 11:11:33;;;;;;;24.10;23.00;;;;;;;-141.02;100.00;71348.81;5115435;28;20195;-64
2023/09/04 11:14:02;;;;;;;24.98;23.77;;;;;;;-141.02;100.00;73827.72;5114944;28;20201;-60
2023/09/04 11:16:34;;;;;;;27.73;26.42;;;;;;;-141.02;100.00;77549.47;5115695;28;20273;-64
2023/09/04 11:19:04;;;;;;;27.85;26.55;;;;;;;-141.02;100.00;79039.28;5115371;28;20190;-61
2023/09/04 11:21:33;;;;;;;27.13;25.83;;;;;;;-141.02;100.00;80281.31;5115230;28;20197;-63
2023/09/04 11:24:00;;;;;;;28.10;26.70;;;;;;;-141.02;100.00;80529.75;5115170;28;20737;-63
2023/09/04 11:26:29;;;;;;;27.80;26.40;;;;;;;-141.02;100.00;85502.66;5115311;28;20671;-62
2023/09/04 11:28:59;;;;;;;26.35;25.05;;;;;;;-141.02;100.00;85253.84;5114875;28;20670;-60